Warner, Ohio
Current Conditions -  °F | °C
As of 3:53 AM on Thursday 18 Dec 2014 (Local Time) from KPKB Reporting Station
Overcast Overcast  
Wind Chill: 20°   Ceiling: 2000
Heat Index: 28°   Visibility: 10mi
Dew Point: 20°   Wind: 8mph
Humidity: 72%   Direction: 280°W
Pressure: 30.27"   Gusts: NA
Location:  39.6083°N, 81.3498°W
Report Text: KPKB 180853Z AUTO 28007KT 10SM OVC020 M02/M07 A3027 RMK AO2 SLP257 T10221067 50007
Loading
Personal Weather Stations






























Interactive Weather Map New forecast layout! Learn more

10-Day Weather Forecast

Advertisements
Track Severe Weather on mobile